Time;durP1;ratioP1;P1;durP2;ratioP2;P2;SDS_P1;SDS_P2;PMS_P1;PMS_P2;Temp;Humidity;BMP_temperature;BMP_pressure;BME280_temperature;BME280_humidity;BME280_pressure;Samples;Min_cycle;Max_cycle;Signal;HPM_P1;HPM_P2
2023/12/14 00:01:46;;;;;;;8.50;4.28;;;3.70;99.90;;;;;;5156670;27;20129;-83
2023/12/14 00:04:11;;;;;;;8.95;4.03;;;4.20;99.90;;;;;;5156572;27;20035;-83
2023/12/14 00:06:37;;;;;;;11.48;5.18;;;5.30;99.90;;;;;;5155684;27;20038;-83
2023/12/14 00:09:03;;;;;;;12.43;4.95;;;4.20;99.90;;;;;;5156568;27;20034;-83
2023/12/14 00:11:29;;;;;;;9.57;4.55;;;4.20;99.90;;;;;;5156575;27;20046;-83
2023/12/14 00:13:54;;;;;;;12.13;5.35;;;4.40;99.90;;;;;;5175316;27;20057;-83
2023/12/14 00:16:20;;;;;;;5.57;4.00;;;4.40;99.90;;;;;;5156330;27;20363;-83
2023/12/14 00:18:46;;;;;;;6.88;3.90;;;4.20;99.90;;;;;;5155941;27;20410;-82
2023/12/14 00:21:11;;;;;;;7.43;3.38;;;4.20;99.90;;;;;;5156030;27;20038;-84
2023/12/14 00:23:37;;;;;;;8.75;3.83;;;3.80;99.90;;;;;;5156328;27;20450;-83
2023/12/14 00:26:03;;;;;;;11.38;4.28;;;4.30;99.90;;;;;;5175138;27;20049;-83
2023/12/14 00:28:29;;;;;;;8.80;4.05;;;4.20;99.90;;;;;;5174574;27;20035;-82
2023/12/14 00:30:54;;;;;;;9.38;4.10;;;4.40;99.90;;;;;;5175400;27;20038;-83
2023/12/14 00:33:20;;;;;;;12.13;4.38;;;4.10;99.90;;;;;;5160496;27;20046;-83
2023/12/14 00:35:46;;;;;;;10.15;4.70;;;4.20;99.90;;;;;;5179280;27;20042;-83
2023/12/14 00:38:11;;;;;;;10.30;4.70;;;4.10;99.90;;;;;;5179605;27;20050;-83
2023/12/14 00:40:37;;;;;;;11.35;5.30;;;3.40;99.90;;;;;;5178915;27;20121;-83
2023/12/14 00:43:03;;;;;;;17.40;5.38;;;4.20;99.90;;;;;;5179404;27;20045;-83
2023/12/14 00:45:29;;;;;;;14.73;5.13;;;4.10;99.90;;;;;;5160679;27;20054;-83
2023/12/14 00:47:55;;;;;;;9.98;5.10;;;4.20;99.90;;;;;;5178709;27;20371;-83
2023/12/14 00:50:20;;;;;;;13.85;5.50;;;4.10;99.90;;;;;;5160401;27;20397;-83
2023/12/14 00:52:46;;;;;;;9.93;4.82;;;4.10;99.90;;;;;;5159666;27;20042;-82
2023/12/14 00:55:11;;;;;;;14.48;5.43;;;3.90;99.90;;;;;;5178934;27;20041;-84
2023/12/14 00:57:37;;;;;;;13.32;6.10;;;4.20;99.90;;;;;;5179216;27;20125;-84
2023/12/14 01:00:03;;;;;;;18.42;5.75;;;4.50;99.90;;;;;;5139265;27;20421;-83
2023/12/14 01:02:29;;;;;;;14.55;5.90;;;4.10;99.90;;;;;;5139212;27;20046;-83
2023/12/14 01:04:55;;;;;;;14.68;6.05;;;4.20;99.90;;;;;;5139237;27;20406;-83
2023/12/14 01:07:20;;;;;;;11.98;6.18;;;4.70;99.90;;;;;;5157847;27;20082;-82
2023/12/14 01:09:46;;;;;;;18.02;7.15;;;4.20;99.90;;;;;;5157715;27;20458;-84
2023/12/14 01:12:12;;;;;;;11.38;6.15;;;4.80;99.90;;;;;;5161254;27;20042;-83
2023/12/14 01:14:37;;;;;;;16.85;6.60;;;4.10;99.90;;;;;;5139056;27;20047;-83
2023/12/14 01:17:03;;;;;;;12.88;6.82;;;4.60;99.90;;;;;;5122051;27;20064;-83
2023/12/14 01:19:29;;;;;;;12.98;6.60;;;4.20;99.90;;;;;;5157567;27;20035;-83
2023/12/14 01:21:56;;;;;;;15.82;7.03;;;4.60;99.90;;;;;;5138796;27;20100;-83
2023/12/14 01:24:22;;;;;;;12.90;5.90;;;4.80;99.90;;;;;;5138699;27;20035;-84
2023/12/14 01:26:48;;;;;;;16.55;6.55;;;4.20;99.90;;;;;;5157612;27;20054;-83
2023/12/14 01:29:13;;;;;;;14.38;5.82;;;4.20;99.90;;;;;;5156208;27;20087;-84
2023/12/14 01:31:39;;;;;;;14.00;5.43;;;4.20;99.90;;;;;;5157596;27;20074;-83
2023/12/14 01:34:05;;;;;;;12.77;5.88;;;4.20;99.90;;;;;;5138393;27;20035;-84
2023/12/14 01:36:30;;;;;;;13.40;5.63;;;4.20;99.90;;;;;;5156111;27;20042;-83
2023/12/14 01:38:56;;;;;;;14.55;5.82;;;4.20;99.90;;;;;;5156805;27;20387;-83
2023/12/14 01:41:22;;;;;;;13.10;5.85;;;4.10;99.90;;;;;;5138710;27;20046;-83
2023/12/14 01:43:48;;;;;;;11.13;4.90;;;4.70;99.90;;;;;;5155529;27;20088;-83
2023/12/14 01:46:15;;;;;;;13.50;5.45;;;4.20;99.90;;;;;;5156131;27;20047;-83
2023/12/14 01:48:40;;;;;;;16.27;6.28;;;3.90;99.90;;;;;;5157007;27;20034;-83
2023/12/14 01:51:06;;;;;;;12.07;5.85;;;4.20;99.90;;;;;;5155955;27;20143;-83
2023/12/14 01:53:32;;;;;;;16.10;6.03;;;4.30;99.90;;;;;;5156412;27;20060;-83
2023/12/14 01:55:57;;;;;;;12.35;5.65;;;4.90;99.90;;;;;;5156844;27;20493;-83
2023/12/14 01:58:25;;;;;;;13.43;4.90;;;4.20;99.90;;;;;;5156075;27;20051;-83
2023/12/14 02:01:05;;;;;;;13.95;5.60;;;4.90;99.90;;;;;;5153561;27;20125;-82
2023/12/14 02:03:30;;;;;;;11.43;4.88;;;4.50;99.90;;;;;;5155459;27;20039;-83
2023/12/14 02:05:57;;;;;;;11.63;5.45;;;4.20;99.90;;;;;;5155110;27;20144;-83
2023/12/14 02:08:24;;;;;;;13.50;5.63;;;4.70;99.90;;;;;;5155113;27;20047;-83
2023/12/14 02:10:50;;;;;;;12.68;5.60;;;4.20;99.90;;;;;;5138286;27;20078;-84
2023/12/14 02:13:16;;;;;;;10.32;4.93;;;4.20;99.90;;;;;;5157087;27;20071;-83
2023/12/14 02:15:42;;;;;;;11.98;5.80;;;4.20;99.90;;;;;;5156617;27;20080;-83
2023/12/14 02:18:08;;;;;;;14.18;5.00;;;4.50;99.90;;;;;;5137850;27;20046;-83
2023/12/14 02:20:33;;;;;;;11.45;5.88;;;4.50;99.90;;;;;;5155487;27;20134;-85
2023/12/14 02:22:59;;;;;;;12.65;5.13;;;4.20;99.90;;;;;;5138215;27;20118;-84
2023/12/14 02:25:25;;;;;;;11.40;4.93;;;4.40;99.90;;;;;;5157066;27;20562;-84
2023/12/14 02:27:51;;;;;;;15.82;5.57;;;4.20;99.90;;;;;;5147169;27;20042;-83
2023/12/14 02:30:17;;;;;;;15.30;5.97;;;3.70;99.90;;;;;;5156147;27;20134;-83
2023/12/14 02:32:43;;;;;;;16.35;5.97;;;4.20;99.90;;;;;;5154753;27;20054;-84
2023/12/14 02:35:09;;;;;;;11.88;6.07;;;4.10;99.90;;;;;;5154487;27;20047;-84
2023/12/14 02:37:41;;;;;;;12.32;5.35;;;4.20;99.90;;;;;;5154394;27;20039;-84
2023/12/14 02:40:08;;;;;;;11.35;5.38;;;4.80;99.90;;;;;;5137244;27;20034;-83
2023/12/14 02:42:34;;;;;;;10.48;6.43;;;4.20;99.90;;;;;;5154522;27;20039;-83
2023/12/14 02:45:01;;;;;;;14.60;5.28;;;4.20;99.90;;;;;;5156106;27;20448;-84
2023/12/14 02:47:28;;;;;;;12.55;5.78;;;4.20;99.90;;;;;;5154028;27;20518;-83
2023/12/14 02:49:53;;;;;;;11.32;5.50;;;3.30;99.90;;;;;;5154917;27;20043;-83
2023/12/14 02:52:19;;;;;;;15.85;5.40;;;4.50;99.90;;;;;;5154551;27;20050;-83
2023/12/14 02:54:45;;;;;;;16.48;6.35;;;4.20;99.90;;;;;;5155548;27;20071;-83
2023/12/14 02:57:10;;;;;;;17.02;6.85;;;4.20;99.90;;;;;;5136691;27;20042;-83
2023/12/14 02:59:36;;;;;;;13.05;5.93;;;4.20;99.90;;;;;;5162838;27;20082;-83
2023/12/14 03:02:02;;;;;;;11.98;6.50;;;4.80;99.90;;;;;;5157952;27;20050;-83
2023/12/14 03:04:28;;;;;;;17.08;7.00;;;4.20;99.90;;;;;;5157400;27;20042;-83
2023/12/14 03:06:53;;;;;;;17.83;6.60;;;4.20;99.90;;;;;;5157983;27;20049;-83
2023/12/14 03:09:19;;;;;;;15.45;6.60;;;4.20;99.90;;;;;;5175689;27;20038;-83
2023/12/14 03:11:45;;;;;;;19.35;7.07;;;4.20;99.90;;;;;;5176491;27;20049;-84
2023/12/14 03:14:11;;;;;;;16.15;7.13;;;4.50;99.90;;;;;;5157676;27;20050;-83
2023/12/14 03:16:37;;;;;;;17.58;7.95;;;4.20;99.90;;;;;;5176292;27;20070;-84
2023/12/14 03:19:03;;;;;;;16.45;7.47;;;4.50;99.90;;;;;;5157244;27;20046;-83
2023/12/14 03:21:29;;;;;;;12.18;6.68;;;4.20;99.90;;;;;;5176068;27;20038;-84
2023/12/14 03:23:55;;;;;;;18.65;7.47;;;4.80;99.90;;;;;;5157769;27;20069;-84
2023/12/14 03:26:20;;;;;;;19.00;7.20;;;4.10;99.90;;;;;;5176332;27;20046;-84
2023/12/14 03:28:46;;;;;;;16.60;7.38;;;4.50;99.90;;;;;;5156784;27;20065;-84
2023/12/14 03:31:15;;;;;;;17.25;6.75;;;5.00;99.90;;;;;;5139843;27;20406;-83
2023/12/14 03:33:42;;;;;;;15.93;7.00;;;4.70;99.90;;;;;;5175755;27;20046;-83
2023/12/14 03:36:08;;;;;;;15.80;7.40;;;4.10;99.90;;;;;;5157391;27;20486;-83
2023/12/14 03:38:33;;;;;;;13.10;7.18;;;4.20;99.90;;;;;;5157506;27;20138;-85
2023/12/14 03:41:00;;;;;;;16.98;7.93;;;4.10;99.90;;;;;;5175576;27;20041;-85
2023/12/14 03:43:26;;;;;;;14.52;7.05;;;4.60;99.90;;;;;;5157119;27;20097;-84
2023/12/14 03:45:52;;;;;;;17.23;7.68;;;4.40;99.90;;;;;;5157200;27;20466;-84
2023/12/14 03:48:18;;;;;;;17.38;7.60;;;4.20;99.90;;;;;;5148421;27;20031;-83
2023/12/14 03:50:43;;;;;;;17.23;7.68;;;4.30;99.90;;;;;;5133029;27;20429;-83
2023/12/14 03:53:09;;;;;;;15.40;7.78;;;4.10;99.90;;;;;;5163826;27;20034;-83
2023/12/14 03:55:35;;;;;;;13.82;6.35;;;4.00;99.90;;;;;;5136451;27;20035;-84
2023/12/14 03:58:00;;;;;;;19.25;7.07;;;4.40;99.90;;;;;;5139022;27;20042;-84
2023/12/14 04:00:26;;;;;;;13.00;6.63;;;4.40;99.90;;;;;;5157052;27;20042;-83
2023/12/14 04:02:52;;;;;;;14.82;6.88;;;4.80;99.90;;;;;;5139450;27;20190;-84
2023/12/14 04:05:18;;;;;;;14.25;7.57;;;4.00;99.90;;;;;;5156015;27;20041;-85
2023/12/14 04:07:43;;;;;;;14.05;7.55;;;4.30;99.90;;;;;;5139466;27;20030;-83
2023/12/14 04:10:10;;;;;;;15.15;7.50;;;4.80;99.90;;;;;;5156662;27;20049;-84
2023/12/14 04:12:36;;;;;;;21.30;7.38;;;4.10;99.90;;;;;;5155239;27;20049;-83
2023/12/14 04:15:03;;;;;;;18.58;7.95;;;4.90;99.90;;;;;;5156486;27;20132;-84
2023/12/14 04:17:28;;;;;;;14.02;6.60;;;4.10;99.90;;;;;;5175039;27;20078;-83
2023/12/14 04:19:54;;;;;;;14.27;6.97;;;4.10;99.90;;;;;;5156936;27;20095;-83
2023/12/14 04:22:20;;;;;;;18.15;7.78;;;4.60;99.90;;;;;;5156275;27;20041;-83
2023/12/14 04:24:45;;;;;;;15.55;7.25;;;4.60;99.90;;;;;;5174651;27;20038;-84
2023/12/14 04:27:11;;;;;;;16.48;7.28;;;4.30;99.90;;;;;;5139440;27;20427;-84
2023/12/14 04:29:36;;;;;;;12.93;7.30;;;4.50;99.90;;;;;;5139810;27;20050;-83
2023/12/14 04:32:02;;;;;;;16.83;7.68;;;4.30;99.90;;;;;;5156360;27;20046;-83
2023/12/14 04:34:28;;;;;;;12.40;7.03;;;4.10;99.90;;;;;;5156092;27;20059;-86
2023/12/14 04:36:57;;;;;;;14.60;7.20;;;4.50;99.90;;;;;;5174256;27;20042;-84
2023/12/14 04:39:24;;;;;;;17.70;7.07;;;4.10;99.90;;;;;;5156182;27;20474;-84
2023/12/14 04:41:50;;;;;;;17.92;7.13;;;4.10;99.90;;;;;;5156873;27;20054;-84
2023/12/14 04:44:16;;;;;;;14.90;6.57;;;4.00;99.90;;;;;;5174517;27;20038;-83
2023/12/14 04:46:42;;;;;;;14.32;6.85;;;4.20;99.90;;;;;;5175809;27;20398;-83
2023/12/14 04:49:08;;;;;;;16.92;7.82;;;4.90;99.90;;;;;;5174946;27;20042;-84
2023/12/14 04:51:33;;;;;;;14.57;7.25;;;4.00;99.90;;;;;;5156596;27;20522;-84
2023/12/14 04:53:59;;;;;;;16.77;7.93;;;4.30;99.90;;;;;;5155920;27;20038;-84
2023/12/14 04:56:25;;;;;;;18.13;8.07;;;3.50;99.90;;;;;;5174329;27;20042;-83
2023/12/14 04:58:50;;;;;;;24.55;7.63;;;4.60;99.90;;;;;;5139063;27;20379;-85
2023/12/14 05:01:16;;;;;;;16.67;8.00;;;4.10;99.90;;;;;;5174694;27;20062;-83
2023/12/14 05:03:42;;;;;;;16.52;7.20;;;4.10;99.90;;;;;;5155653;27;20482;-84
2023/12/14 05:06:08;;;;;;;15.95;7.43;;;4.10;99.90;;;;;;5174622;27;20039;-84
2023/12/14 05:08:34;;;;;;;18.45;8.30;;;4.10;99.90;;;;;;5156339;27;20068;-83
2023/12/14 05:10:59;;;;;;;14.00;6.95;;;4.10;99.90;;;;;;5156371;27;20494;-83
2023/12/14 05:13:25;;;;;;;19.52;7.72;;;5.00;99.90;;;;;;5156279;27;20053;-85
2023/12/14 05:15:52;;;;;;;18.60;7.30;;;4.10;99.90;;;;;;5155955;27;20037;-83
2023/12/14 05:18:18;;;;;;;17.90;7.30;;;4.10;99.90;;;;;;5159232;27;20537;-83
2023/12/14 05:20:45;;;;;;;18.90;7.90;;;4.90;99.90;;;;;;5160024;27;20046;-83
2023/12/14 05:23:12;;;;;;;19.45;7.63;;;4.10;99.90;;;;;;5160028;27;20034;-83
2023/12/14 05:25:38;;;;;;;16.00;7.30;;;4.70;99.90;;;;;;5158865;27;20485;-83
2023/12/14 05:28:04;;;;;;;16.02;7.45;;;4.50;99.90;;;;;;5142121;27;20045;-83
2023/12/14 05:30:30;;;;;;;16.50;7.60;;;4.60;99.90;;;;;;5178306;27;20034;-82
2023/12/14 05:32:55;;;;;;;19.33;8.38;;;4.10;99.90;;;;;;5178248;27;20046;-83
2023/12/14 05:35:21;;;;;;;16.17;7.35;;;4.80;99.90;;;;;;5160033;27;20125;-83
2023/12/14 05:37:47;;;;;;;18.83;7.45;;;4.40;99.90;;;;;;5158578;27;20057;-84
2023/12/14 05:40:13;;;;;;;13.50;7.05;;;4.10;99.90;;;;;;5178443;27;20038;-83
2023/12/14 05:42:39;;;;;;;19.70;7.80;;;4.00;99.90;;;;;;5159546;27;20052;-83
2023/12/14 05:45:05;;;;;;;18.98;8.13;;;4.40;99.90;;;;;;5159531;27;20038;-83
2023/12/14 05:47:33;;;;;;;18.00;8.20;;;4.10;99.90;;;;;;5177788;27;20443;-83
2023/12/14 05:49:59;;;;;;;17.60;6.55;;;4.70;99.90;;;;;;5159031;27;20041;-83
2023/12/14 05:52:24;;;;;;;19.38;7.50;;;4.60;99.90;;;;;;5177836;27;20125;-83
2023/12/14 05:54:50;;;;;;;13.52;7.30;;;4.50;99.90;;;;;;5159575;27;20113;-83
2023/12/14 05:57:16;;;;;;;24.52;7.38;;;4.90;99.90;;;;;;5177229;27;20046;-83
2023/12/14 05:59:42;;;;;;;17.85;8.07;;;4.70;99.90;;;;;;5158496;27;20043;-83
2023/12/14 06:02:08;;;;;;;17.52;7.18;;;4.10;99.90;;;;;;5159193;27;20050;-83
2023/12/14 06:04:34;;;;;;;19.80;8.05;;;4.80;99.90;;;;;;5142184;27;20137;-83
2023/12/14 06:06:59;;;;;;;17.77;8.35;;;4.60;99.90;;;;;;5159326;27;20129;-83
2023/12/14 06:09:33;;;;;;;17.40;8.57;;;4.10;99.90;;;;;;5176950;27;20047;-83
2023/12/14 06:12:03;;;;;;;20.65;8.35;;;4.80;99.90;;;;;;5137664;27;20383;-84
2023/12/14 06:14:29;;;;;;;22.08;8.00;;;4.10;99.90;;;;;;5141881;27;20402;-84
2023/12/14 06:16:55;;;;;;;15.68;7.85;;;4.10;99.90;;;;;;5158852;27;20042;-83
2023/12/14 06:19:21;;;;;;;17.95;7.47;;;4.10;99.90;;;;;;5177211;27;20068;-85
2023/12/14 06:21:47;;;;;;;20.02;7.47;;;4.40;99.90;;;;;;5158783;27;20073;-83
2023/12/14 06:24:13;;;;;;;15.07;7.18;;;3.80;99.90;;;;;;5177185;27;20077;-84
2023/12/14 06:26:45;;;;;;;19.55;7.95;;;4.30;99.90;;;;;;5158678;27;20080;-85
2023/12/14 06:29:11;;;;;;;19.08;7.25;;;3.90;99.90;;;;;;5157690;27;20490;-84
2023/12/14 06:31:38;;;;;;;24.35;11.30;;;4.30;99.90;;;;;;5176774;27;20045;-83
2023/12/14 06:34:05;;;;;;;22.45;8.32;;;4.20;99.90;;;;;;5158353;27;20039;-84
2023/12/14 06:36:33;;;;;;;17.52;7.63;;;4.50;99.90;;;;;;5176994;27;20438;-84
2023/12/14 06:39:00;;;;;;;20.02;9.00;;;4.10;99.90;;;;;;5141079;27;20486;-84
2023/12/14 06:41:26;;;;;;;19.00;7.93;;;4.30;99.90;;;;;;5158125;27;20056;-85
2023/12/14 06:43:52;;;;;;;17.08;7.47;;;5.00;99.90;;;;;;5158522;27;20081;-83
2023/12/14 06:46:18;;;;;;;20.67;8.40;;;4.60;99.90;;;;;;5141113;27;20042;-83
2023/12/14 06:48:45;;;;;;;16.77;8.38;;;4.10;99.90;;;;;;5157510;27;20042;-83
2023/12/14 06:51:11;;;;;;;18.73;8.18;;;4.10;99.90;;;;;;5176757;27;20070;-84
2023/12/14 06:53:40;;;;;;;18.63;7.55;;;4.80;99.90;;;;;;5140138;27;20088;-84
2023/12/14 06:56:09;;;;;;;20.23;7.65;;;4.20;99.90;;;;;;5157249;27;20036;-84
2023/12/14 06:58:35;;;;;;;16.38;7.60;;;4.10;99.90;;;;;;5176970;27;20049;-84
2023/12/14 07:01:01;;;;;;;22.15;8.05;;;4.10;99.90;;;;;;5157668;27;20058;-84
2023/12/14 07:03:26;;;;;;;19.48;8.23;;;4.90;99.90;;;;;;5175750;27;20046;-83
2023/12/14 07:05:52;;;;;;;17.38;8.43;;;4.70;99.90;;;;;;5157680;27;20035;-83
2023/12/14 07:08:18;;;;;;;21.02;8.32;;;4.90;99.90;;;;;;5156994;27;20125;-85
2023/12/14 07:10:43;;;;;;;18.83;8.13;;;4.50;99.90;;;;;;5175660;27;20383;-85
2023/12/14 07:13:09;;;;;;;14.65;8.25;;;4.90;99.90;;;;;;5157266;27;20037;-84
2023/12/14 07:15:35;;;;;;;19.25;8.80;;;4.10;99.90;;;;;;5140159;27;20070;-85
2023/12/14 07:18:01;;;;;;;22.30;9.70;;;4.10;99.90;;;;;;5176090;27;20125;-84
2023/12/14 07:20:27;;;;;;;18.55;8.70;;;3.80;99.90;;;;;;5157125;27;20401;-83
2023/12/14 07:22:53;;;;;;;17.80;8.18;;;4.80;99.90;;;;;;5157267;27;20050;-84
2023/12/14 07:25:18;;;;;;;21.70;8.93;;;3.40;99.90;;;;;;5140171;27;20045;-83
2023/12/14 07:27:46;;;;;;;18.58;9.50;;;3.50;99.90;;;;;;5140520;27;20087;-84
2023/12/14 07:30:13;;;;;;;21.60;8.95;;;4.50;99.90;;;;;;5156841;27;20486;-84
2023/12/14 07:32:38;;;;;;;22.73;9.85;;;4.10;99.90;;;;;;5155819;27;20050;-85
2023/12/14 07:35:05;;;;;;;21.02;9.25;;;3.90;99.90;;;;;;5157092;27;20064;-83
2023/12/14 07:37:30;;;;;;;20.38;8.93;;;4.10;99.90;;;;;;5175953;27;20046;-84
2023/12/14 07:39:57;;;;;;;18.38;9.23;;;4.50;99.90;;;;;;5175183;27;20036;-85
2023/12/14 07:42:23;;;;;;;21.23;9.15;;;4.20;99.90;;;;;;5139270;27;20094;-85
2023/12/14 07:44:49;;;;;;;19.60;8.82;;;4.10;99.90;;;;;;5139740;27;20037;-85
2023/12/14 07:47:15;;;;;;;28.13;9.55;;;4.90;99.90;;;;;;5139680;27;20050;-86
2023/12/14 07:49:41;;;;;;;25.67;10.02;;;4.10;99.90;;;;;;5156837;27;20038;-85
2023/12/14 07:52:06;;;;;;;22.80;9.43;;;3.80;99.90;;;;;;5155793;27;20084;-85
2023/12/14 07:54:32;;;;;;;20.95;9.50;;;4.90;99.90;;;;;;5138783;27;20035;-88
2023/12/14 07:56:58;;;;;;;21.35;9.55;;;3.20;99.90;;;;;;5175124;27;20034;-85
2023/12/14 07:59:24;;;;;;;20.00;10.10;;;4.70;99.90;;;;;;5175196;27;20051;-86
2023/12/14 08:01:49;;;;;;;21.88;9.80;;;4.10;99.90;;;;;;5152020;27;20053;-86
2023/12/14 08:04:15;;;;;;;23.85;10.52;;;4.70;99.90;;;;;;5139764;27;20066;-87
2023/12/14 08:06:42;;;;;;;22.80;9.48;;;4.10;99.90;;;;;;5175691;27;20046;-86
2023/12/14 08:09:08;;;;;;;20.55;9.77;;;4.10;99.90;;;;;;5175701;27;20030;-87
2023/12/14 08:11:34;;;;;;;22.88;9.07;;;3.70;99.90;;;;;;5139661;27;20039;-85
2023/12/14 08:13:59;;;;;;;25.92;11.55;;;4.30;99.90;;;;;;5175458;27;20061;-85
2023/12/14 08:16:27;;;;;;;18.55;8.93;;;4.10;99.90;;;;;;5157673;27;20034;-89
2023/12/14 08:18:53;;;;;;;20.30;9.73;;;3.90;99.90;;;;;;5175507;27;20038;-87
2023/12/14 08:21:19;;;;;;;17.80;8.90;;;4.50;99.90;;;;;;5156451;27;20086;-86
2023/12/14 08:23:45;;;;;;;20.02;9.43;;;4.30;99.90;;;;;;5156845;27;20045;-86
2023/12/14 08:26:12;;;;;;;19.10;9.05;;;4.20;99.90;;;;;;5174959;27;20128;-85
2023/12/14 08:28:39;;;;;;;23.85;9.82;;;4.90;99.90;;;;;;5156930;27;20077;-86
2023/12/14 08:31:05;;;;;;;20.58;9.80;;;3.20;99.90;;;;;;5175148;27;20049;-86
2023/12/14 08:33:31;;;;;;;24.02;11.00;;;4.10;99.90;;;;;;5156782;27;20046;-85
2023/12/14 08:35:57;;;;;;;23.90;10.52;;;4.00;99.90;;;;;;5156610;27;20419;-85
2023/12/14 08:38:23;;;;;;;29.60;10.07;;;2.90;99.90;;;;;;5156398;27;20046;-86
2023/12/14 08:40:49;;;;;;;18.83;8.95;;;4.20;99.90;;;;;;5139154;27;20038;-86
2023/12/14 08:43:14;;;;;;;19.23;10.07;;;4.00;99.90;;;;;;5139379;27;20105;-85
2023/12/14 08:45:40;;;;;;;18.85;8.65;;;4.90;99.90;;;;;;5156258;27;20494;-86
2023/12/14 08:48:06;;;;;;;21.08;9.32;;;4.60;99.90;;;;;;5156373;27;20046;-85
2023/12/14 08:50:32;;;;;;;20.00;9.25;;;4.50;99.90;;;;;;5175093;27;20046;-86
2023/12/14 08:53:00;;;;;;;22.60;9.40;;;4.60;99.90;;;;;;5159091;27;20045;-86
2023/12/14 08:55:26;;;;;;;19.20;8.90;;;4.70;99.90;;;;;;5160593;27;20038;-86
2023/12/14 08:57:52;;;;;;;22.42;9.50;;;4.50;99.90;;;;;;5179020;27;20034;-86
2023/12/14 09:00:18;;;;;;;15.45;8.20;;;4.80;99.90;;;;;;5178545;27;20053;-85
2023/12/14 09:02:45;;;;;;;19.63;9.45;;;4.40;99.90;;;;;;5160408;27;20118;-85
2023/12/14 09:05:16;;;;;;;25.15;9.85;;;4.80;99.90;;;;;;5160543;27;20129;-86
2023/12/14 09:07:42;;;;;;;21.73;8.77;;;4.60;99.90;;;;;;5160099;27;20049;-87
2023/12/14 09:10:08;;;;;;;20.20;9.65;;;4.40;99.90;;;;;;5178844;27;20037;-85
2023/12/14 09:12:35;;;;;;;18.38;8.52;;;4.40;99.90;;;;;;5178528;27;20071;-86
2023/12/14 09:15:01;;;;;;;21.98;9.10;;;4.50;99.90;;;;;;5160284;27;20038;-85
2023/12/14 09:17:32;;;;;;;20.10;9.18;;;5.10;99.90;;;;;;5160079;27;20375;-85
2023/12/14 09:19:59;;;;;;;23.77;8.93;;;4.50;99.90;;;;;;5142782;27;20482;-84
2023/12/14 09:22:25;;;;;;;17.48;9.02;;;5.20;99.90;;;;;;5160040;27;20041;-84
2023/12/14 09:24:51;;;;;;;19.65;8.85;;;4.60;99.90;;;;;;5159947;27;20038;-85
2023/12/14 09:27:17;;;;;;;23.00;8.98;;;5.10;99.90;;;;;;5142344;27;20042;-85
2023/12/14 09:29:43;;;;;;;19.98;9.40;;;4.60;99.90;;;;;;5142820;27;20117;-85
2023/12/14 09:32:08;;;;;;;21.17;8.90;;;5.30;99.90;;;;;;5159597;27;20094;-85
2023/12/14 09:34:34;;;;;;;17.85;9.43;;;4.40;99.90;;;;;;5178574;27;20042;-85
2023/12/14 09:37:00;;;;;;;22.90;9.77;;;4.60;99.90;;;;;;5159767;27;20046;-84
2023/12/14 09:39:27;;;;;;;21.38;9.43;;;5.10;99.90;;;;;;5159772;27;20045;-85
2023/12/14 09:42:04;;;;;;;20.80;9.52;;;5.30;99.90;;;;;;5160062;27;20042;-85
2023/12/14 09:44:31;;;;;;;19.40;9.25;;;4.60;99.90;;;;;;5159677;27;20052;-86
2023/12/14 09:47:02;;;;;;;18.55;9.65;;;4.60;99.90;;;;;;5159809;27;20398;-86
2023/12/14 09:49:29;;;;;;;20.98;9.63;;;5.40;99.90;;;;;;5177945;27;20447;-85
2023/12/14 09:51:59;;;;;;;17.20;9.05;;;5.20;99.90;;;;;;5159545;27;20376;-86
2023/12/14 09:54:27;;;;;;;24.88;9.32;;;5.30;99.90;;;;;;5141966;27;20038;-84
2023/12/14 09:56:53;;;;;;;21.33;8.95;;;3.50;99.90;;;;;;5178338;27;20094;-86
2023/12/14 09:59:19;;;;;;;17.85;8.77;;;4.70;99.90;;;;;;5141688;27;20038;-85
2023/12/14 10:01:46;;;;;;;28.73;9.80;;;4.30;99.90;;;;;;5177931;27;20061;-84
2023/12/14 10:04:16;;;;;;;23.02;10.05;;;5.20;99.90;;;;;;5157852;27;20042;-85
2023/12/14 10:06:44;;;;;;;18.65;9.52;;;4.70;99.90;;;;;;5159258;27;20038;-85
2023/12/14 10:09:13;;;;;;;21.40;10.13;;;5.10;99.90;;;;;;5158872;27;20470;-84
2023/12/14 10:11:42;;;;;;;25.23;9.80;;;4.90;99.90;;;;;;5158959;27;20042;-84
2023/12/14 10:14:26;;;;;;;17.63;9.35;;;4.10;99.90;;;;;;5141916;27;20039;-85
2023/12/14 10:16:52;;;;;;;20.55;9.07;;;5.00;99.90;;;;;;5141740;27;20045;-85
2023/12/14 10:19:19;;;;;;;22.65;10.55;;;5.30;99.90;;;;;;5177266;27;20103;-85
2023/12/14 10:21:49;;;;;;;22.27;10.05;;;5.00;99.90;;;;;;5158592;27;20046;-85
2023/12/14 10:24:15;;;;;;;19.63;9.27;;;5.40;99.90;;;;;;5158928;27;20042;-85
2023/12/14 10:26:41;;;;;;;24.67;10.52;;;4.80;99.90;;;;;;5141464;27;20034;-85
2023/12/14 10:29:07;;;;;;;20.48;9.90;;;5.20;99.90;;;;;;5158745;27;20038;-85
2023/12/14 10:31:37;;;;;;;19.77;9.85;;;5.70;99.90;;;;;;5158762;27;20149;-85
2023/12/14 10:34:06;;;;;;;21.27;10.40;;;5.60;99.90;;;;;;5158359;27;20042;-85
2023/12/14 10:36:32;;;;;;;19.77;9.52;;;5.20;99.90;;;;;;5158376;27;20038;-85
2023/12/14 10:39:00;;;;;;;18.98;9.70;;;5.10;99.90;;;;;;5141011;27;20111;-86
2023/12/14 10:41:28;;;;;;;20.40;10.38;;;4.90;99.90;;;;;;5158833;27;20496;-85
2023/12/14 10:43:56;;;;;;;19.25;9.57;;;5.00;99.90;;;;;;5158457;27;20075;-84
2023/12/14 10:46:22;;;;;;;21.40;9.32;;;5.30;99.90;;;;;;5158603;27;20050;-85
2023/12/14 10:48:51;;;;;;;17.65;9.13;;;5.40;99.90;;;;;;5158257;27;20031;-85
2023/12/14 10:51:27;;;;;;;15.55;9.25;;;4.90;99.90;;;;;;5157933;27;20046;-85
2023/12/14 10:53:53;;;;;;;20.33;9.48;;;5.20;99.90;;;;;;5176873;27;20053;-85
2023/12/14 10:56:19;;;;;;;20.80;9.82;;;6.10;99.90;;;;;;5140623;27;20038;-85
2023/12/14 10:58:46;;;;;;;20.90;9.70;;;5.80;99.90;;;;;;5157970;27;20093;-86
2023/12/14 11:01:18;;;;;;;20.00;9.10;;;5.30;99.90;;;;;;5140609;27;20050;-86
2023/12/14 11:03:44;;;;;;;22.88;9.52;;;5.00;99.90;;;;;;5158118;27;20102;-86
2023/12/14 11:06:29;;;;;;;16.58;8.60;;;6.10;99.90;;;;;;5176800;27;20037;-87
2023/12/14 11:08:58;;;;;;;22.63;10.00;;;4.90;99.90;;;;;;5157991;27;20097;-84
2023/12/14 11:11:28;;;;;;;22.25;10.45;;;5.40;99.90;;;;;;5156240;27;20030;-87
2023/12/14 11:13:54;;;;;;;18.00;9.57;;;5.40;99.90;;;;;;5157440;27;20408;-84
2023/12/14 11:16:28;;;;;;;18.10;9.10;;;5.80;99.90;;;;;;5157574;27;20190;-86
2023/12/14 11:19:28;;;;;;;20.55;9.73;;;6.00;99.90;;;;;;5176333;27;20122;-85
2023/12/14 11:21:56;;;;;;;22.98;9.10;;;5.30;99.90;;;;;;5071430;28;20071;-86
2023/12/14 11:24:23;;;;;;;23.40;9.55;;;5.70;99.90;;;;;;5054453;28;20135;-86
2023/12/14 11:26:52;;;;;;;18.95;9.13;;;5.50;99.90;;;;;;5071331;28;20041;-86
2023/12/14 11:29:19;;;;;;;17.58;9.48;;;5.80;99.90;;;;;;5054175;28;20148;-87
2023/12/14 11:31:45;;;;;;;21.70;9.40;;;6.00;99.90;;;;;;5037546;28;20507;-84
2023/12/14 11:34:11;;;;;;;18.35;9.55;;;6.30;99.90;;;;;;5037274;28;20052;-84
2023/12/14 11:36:41;;;;;;;17.63;9.20;;;5.60;99.90;;;;;;5053732;28;20052;-84
2023/12/14 11:39:09;;;;;;;19.05;9.68;;;6.40;99.90;;;;;;5054074;28;20060;-85
2023/12/14 11:41:36;;;;;;;20.48;9.55;;;6.30;99.90;;;;;;5053996;28;20048;-88
2023/12/14 11:44:04;;;;;;;17.98;9.60;;;5.60;99.90;;;;;;5049544;28;20052;-85
2023/12/14 11:46:35;;;;;;;18.58;9.57;;;5.70;99.90;;;;;;5054314;28;20059;-86
2023/12/14 11:49:04;;;;;;;18.63;9.73;;;5.70;99.90;;;;;;5053753;28;20374;-85
2023/12/14 11:51:31;;;;;;;15.85;8.82;;;6.60;99.90;;;;;;5070040;28;20048;-85
2023/12/14 11:54:00;;;;;;;16.75;9.68;;;5.80;99.90;;;;;;5070496;28;20044;-84
2023/12/14 11:56:26;;;;;;;15.88;8.55;;;6.40;99.90;;;;;;5063656;27;20040;-86
2023/12/14 11:58:55;;;;;;;16.38;9.07;;;6.50;99.90;;;;;;5140078;27;20099;-85
2023/12/14 12:01:21;;;;;;;19.80;8.93;;;6.30;99.90;;;;;;5156707;27;20053;-86
2023/12/14 12:03:47;;;;;;;20.42;9.70;;;6.20;99.90;;;;;;5156930;27;20050;-86
2023/12/14 12:06:30;;;;;;;18.38;9.82;;;6.10;99.90;;;;;;5156686;27;20038;-84
2023/12/14 12:08:56;;;;;;;18.65;9.55;;;6.60;99.90;;;;;;5155752;27;20049;-85
2023/12/14 12:11:27;;;;;;;19.30;10.25;;;6.50;99.90;;;;;;5156687;27;20034;-85
2023/12/14 12:13:57;;;;;;;19.02;10.05;;;6.50;99.90;;;;;;5156681;27;20046;-85
2023/12/14 12:16:23;;;;;;;19.92;9.35;;;6.40;99.90;;;;;;5156580;27;20045;-86
2023/12/14 12:18:51;;;;;;;22.33;10.75;;;6.20;99.90;;;;;;5175291;27;20068;-86
2023/12/14 12:21:17;;;;;;;16.27;9.75;;;6.20;99.90;;;;;;5175224;27;20447;-86
2023/12/14 12:23:43;;;;;;;21.58;10.93;;;6.60;99.90;;;;;;5156458;27;20042;-86
2023/12/14 12:26:09;;;;;;;17.73;9.30;;;6.10;99.90;;;;;;5174730;27;20026;-86
2023/12/14 12:28:35;;;;;;;22.75;10.75;;;6.00;99.90;;;;;;5156537;27;20061;-87
2023/12/14 12:31:01;;;;;;;22.50;10.80;;;6.20;99.90;;;;;;5156377;27;20098;-86
2023/12/14 12:33:27;;;;;;;23.70;11.30;;;6.00;99.90;;;;;;5155905;27;20053;-85
2023/12/14 12:35:54;;;;;;;22.58;10.90;;;6.70;99.90;;;;;;5174999;27;20030;-85
2023/12/14 12:38:20;;;;;;;18.77;10.80;;;6.00;99.90;;;;;;5156603;27;20393;-86
2023/12/14 12:40:46;;;;;;;17.52;11.10;;;6.80;99.90;;;;;;5156415;27;20179;-86
2023/12/14 12:43:14;;;;;;;20.25;10.43;;;6.80;99.90;;;;;;5175046;27;20046;-86